createdAt,value
2023-01-28T00:00:56.276Z,1023.09
2023-01-28T00:01:56.230Z,1023.10
2023-01-28T00:02:56.295Z,1023.06
2023-01-28T00:03:56.304Z,1023.06
2023-01-28T00:04:56.226Z,1023.01
2023-01-28T00:05:56.207Z,1023.14
2023-01-28T00:06:56.182Z,1023.08
2023-01-28T00:07:56.166Z,1023.01
2023-01-28T00:08:56.169Z,1023.06
2023-01-28T00:09:56.184Z,1023.07
2023-01-28T00:10:56.141Z,1023.04
2023-01-28T00:11:56.127Z,1023.05
2023-01-28T00:12:56.150Z,1023.05
2023-01-28T00:13:56.128Z,1023.00
2023-01-28T00:14:56.098Z,1023.03
2023-01-28T00:15:56.134Z,1023.03
2023-01-28T00:16:56.073Z,1023.03
2023-01-28T00:17:56.067Z,1023.10
2023-01-28T00:18:56.077Z,1023.09
2023-01-28T00:19:56.040Z,1023.08
2023-01-28T00:20:56.058Z,1023.07
2023-01-28T00:21:56.021Z,1023.22
2023-01-28T00:22:56.033Z,1023.18
2023-01-28T00:23:56.076Z,1023.17
2023-01-28T00:24:55.992Z,1023.15
2023-01-28T00:25:55.987Z,1023.19
2023-01-28T00:26:55.997Z,1023.21
2023-01-28T00:27:55.968Z,1023.26
2023-01-28T00:28:55.957Z,1023.24
2023-01-28T00:29:55.937Z,1023.22
2023-01-28T00:30:56.048Z,1023.21
2023-01-28T00:31:55.973Z,1023.19
2023-01-28T00:32:55.913Z,1023.17
2023-01-28T00:33:55.897Z,1023.21
2023-01-28T00:34:55.920Z,1023.23
2023-01-28T00:35:55.875Z,1023.19
2023-01-28T00:36:55.894Z,1023.16
2023-01-28T00:37:55.848Z,1023.22
2023-01-28T00:38:55.847Z,1023.20
2023-01-28T00:39:55.833Z,1023.19
2023-01-28T00:40:55.833Z,1023.15
2023-01-28T00:41:55.829Z,1023.23
2023-01-28T00:42:55.801Z,1023.21
2023-01-28T00:43:55.810Z,1023.20
2023-01-28T00:44:55.778Z,1023.20
2023-01-28T00:45:55.801Z,1023.21
2023-01-28T00:46:55.785Z,1023.21
2023-01-28T00:47:55.742Z,1023.20
2023-01-28T00:48:55.754Z,1023.23
2023-01-28T00:49:55.718Z,1023.24
2023-01-28T00:50:55.736Z,1023.31
2023-01-28T00:51:55.724Z,1023.25
2023-01-28T00:52:55.696Z,1023.30
2023-01-28T00:53:55.709Z,1023.32
2023-01-28T00:54:55.667Z,1023.28
2023-01-28T00:55:55.662Z,1023.35
2023-01-28T00:56:55.674Z,1023.36
2023-01-28T00:57:55.640Z,1023.31
2023-01-28T00:58:55.652Z,1023.36
2023-01-28T00:59:55.623Z,1023.27
2023-01-28T01:00:55.610Z,1023.32
2023-01-28T01:01:55.616Z,1023.30
2023-01-28T01:02:55.663Z,1023.34
2023-01-28T01:03:55.615Z,1023.31
2023-01-28T01:04:55.564Z,1023.32
2023-01-28T01:05:55.553Z,1023.29
2023-01-28T01:06:55.559Z,1023.35
2023-01-28T01:07:55.535Z,1023.31
2023-01-28T01:08:55.539Z,1023.33
2023-01-28T01:09:55.508Z,1023.26
2023-01-28T01:10:55.498Z,1023.26
2023-01-28T01:11:55.488Z,1023.27
2023-01-28T01:12:55.477Z,1023.30
2023-01-28T01:13:55.501Z,1023.25
2023-01-28T01:14:55.474Z,1023.29
2023-01-28T01:15:55.488Z,1023.30
2023-01-28T01:16:55.433Z,1023.21
2023-01-28T01:17:55.454Z,1023.26
2023-01-28T01:18:55.414Z,1023.21
2023-01-28T01:19:55.403Z,1023.18
2023-01-28T01:20:55.397Z,1023.23
2023-01-28T01:21:55.378Z,1023.24
2023-01-28T01:22:55.424Z,1023.28
2023-01-28T01:23:55.406Z,1023.22
2023-01-28T01:24:55.350Z,1023.29
2023-01-28T01:25:55.337Z,1023.29
2023-01-28T01:26:55.334Z,1023.31
2023-01-28T01:27:55.360Z,1023.32
2023-01-28T01:28:55.307Z,1023.30
2023-01-28T01:29:55.298Z,1023.25
2023-01-28T01:30:55.307Z,1023.31
2023-01-28T01:31:55.346Z,1023.29
2023-01-28T01:32:55.296Z,1023.33
2023-01-28T01:33:55.260Z,1023.29
2023-01-28T01:34:55.243Z,1023.33
2023-01-28T01:35:55.264Z,1023.35
2023-01-28T01:36:55.222Z,1023.34
2023-01-28T01:37:55.214Z,1023.36
2023-01-28T01:38:55.550Z,1023.35
2023-01-28T01:39:55.190Z,1023.30
2023-01-28T01:40:55.206Z,1023.35
2023-01-28T01:41:55.183Z,1023.37
2023-01-28T01:42:55.156Z,1023.30
2023-01-28T01:43:55.156Z,1023.34
2023-01-28T01:44:55.135Z,1023.36
2023-01-28T01:45:55.208Z,1023.37
2023-01-28T01:46:55.127Z,1023.36
2023-01-28T01:47:55.109Z,1023.42
2023-01-28T01:48:55.230Z,1023.39
2023-01-28T01:49:55.097Z,1023.43
2023-01-28T01:50:55.110Z,1023.43
2023-01-28T01:51:55.069Z,1023.39
2023-01-28T01:52:55.050Z,1023.41
2023-01-28T01:53:55.045Z,1023.40
2023-01-28T01:54:55.107Z,1023.43
2023-01-28T01:55:55.020Z,1023.47
2023-01-28T01:56:55.034Z,1023.41
2023-01-28T01:57:55.002Z,1023.38
2023-01-28T01:58:54.978Z,1023.42
2023-01-28T01:59:54.983Z,1023.40
2023-01-28T02:00:54.966Z,1023.43
2023-01-28T02:01:55.019Z,1023.37
2023-01-28T02:02:54.938Z,1023.45
2023-01-28T02:03:54.931Z,1023.47
2023-01-28T02:04:54.923Z,1023.49
2023-01-28T02:05:54.911Z,1023.48
2023-01-28T02:06:54.959Z,1023.52
2023-01-28T02:07:54.890Z,1023.48
2023-01-28T02:08:54.881Z,1023.51
2023-01-28T02:09:54.876Z,1023.46
2023-01-28T02:10:54.878Z,1023.52
2023-01-28T02:11:54.882Z,1023.42
2023-01-28T02:12:54.839Z,1023.47
2023-01-28T02:13:57.093Z,1023.41
2023-01-28T02:14:54.815Z,1023.45
2023-01-28T02:15:54.805Z,1023.43
2023-01-28T02:16:54.879Z,1023.37
2023-01-28T02:17:54.789Z,1023.36
2023-01-28T02:18:54.770Z,1023.39
2023-01-28T02:19:54.791Z,1023.35
2023-01-28T02:20:54.754Z,1023.34
2023-01-28T02:21:54.755Z,1023.41
2023-01-28T02:22:54.783Z,1023.40
2023-01-28T02:23:54.773Z,1023.37
2023-01-28T02:24:54.740Z,1023.38
2023-01-28T02:25:54.762Z,1023.37
2023-01-28T02:26:54.708Z,1023.29
2023-01-28T02:27:54.677Z,1023.37
2023-01-28T02:28:54.666Z,1023.37
2023-01-28T02:29:54.654Z,1023.39
2023-01-28T02:30:54.838Z,1023.38
2023-01-28T02:31:54.832Z,1023.37
2023-01-28T02:32:54.623Z,1023.38
2023-01-28T02:33:54.653Z,1023.36
2023-01-28T02:34:54.601Z,1023.31
2023-01-28T02:35:54.611Z,1023.36
2023-01-28T02:36:54.602Z,1023.40
2023-01-28T02:37:54.564Z,1023.43
2023-01-28T02:38:54.604Z,1023.45
2023-01-28T02:39:54.548Z,1023.46
2023-01-28T02:40:54.563Z,1023.48
2023-01-28T02:41:54.562Z,1023.51
2023-01-28T02:42:54.554Z,1023.49
2023-01-28T02:43:54.510Z,1023.46
2023-01-28T02:44:54.497Z,1023.48
2023-01-28T02:45:54.526Z,1023.48
2023-01-28T02:46:54.498Z,1023.47
2023-01-28T02:47:54.465Z,1023.52
2023-01-28T02:48:54.446Z,1023.42
2023-01-28T02:49:54.444Z,1023.43
2023-01-28T02:50:54.432Z,1023.43
2023-01-28T02:51:54.452Z,1023.47
2023-01-28T02:52:54.414Z,1023.50
2023-01-28T02:53:54.402Z,1023.54
2023-01-28T02:54:54.412Z,1023.48
2023-01-28T02:55:54.380Z,1023.48
2023-01-28T02:56:54.367Z,1023.55
2023-01-28T02:57:54.356Z,1023.48
2023-01-28T02:58:54.360Z,1023.53
2023-01-28T02:59:54.360Z,1023.49
2023-01-28T03:00:54.543Z,1023.44
2023-01-28T03:01:54.476Z,1023.50
2023-01-28T03:02:54.445Z,1023.46
2023-01-28T03:03:54.294Z,1023.51
2023-01-28T03:04:54.281Z,1023.52
2023-01-28T03:05:54.272Z,1023.45
2023-01-28T03:06:54.273Z,1023.45
2023-01-28T03:07:54.271Z,1023.43
2023-01-28T03:08:54.245Z,1023.41
2023-01-28T03:09:54.230Z,1023.46
2023-01-28T03:10:54.212Z,1023.42
2023-01-28T03:11:54.204Z,1023.47
2023-01-28T03:12:54.270Z,1023.47
2023-01-28T03:13:54.182Z,1023.44
2023-01-28T03:14:54.197Z,1023.51
2023-01-28T03:15:54.246Z,1023.45
2023-01-28T03:16:54.165Z,1023.45
2023-01-28T03:17:54.169Z,1023.47
2023-01-28T03:18:54.127Z,1023.40
2023-01-28T03:19:54.125Z,1023.41
2023-01-28T03:20:54.127Z,1023.44
2023-01-28T03:21:54.106Z,1023.40
2023-01-28T03:22:54.127Z,1023.42
2023-01-28T03:23:54.131Z,1023.51
2023-01-28T03:24:54.111Z,1023.42
2023-01-28T03:25:54.059Z,1023.45
2023-01-28T03:26:54.055Z,1023.44
2023-01-28T03:27:54.078Z,1023.41
2023-01-28T03:28:54.021Z,1023.49
2023-01-28T03:29:54.032Z,1023.39
2023-01-28T03:30:54.042Z,1023.51
2023-01-28T03:31:54.002Z,1023.49
2023-01-28T03:32:54.009Z,1023.50
2023-01-28T03:33:53.971Z,1023.44
2023-01-28T03:34:53.958Z,1023.46
2023-01-28T03:35:53.950Z,1023.44
2023-01-28T03:36:53.951Z,1023.47
2023-01-28T03:37:53.953Z,1023.45
2023-01-28T03:38:53.923Z,1023.44
2023-01-28T03:39:53.919Z,1023.49
2023-01-28T03:40:53.899Z,1023.47
2023-01-28T03:41:53.886Z,1023.47
2023-01-28T03:42:53.916Z,1023.42
2023-01-28T03:43:53.872Z,1023.47
2023-01-28T03:44:53.852Z,1023.39
2023-01-28T03:45:53.842Z,1023.37
2023-01-28T03:46:53.853Z,1023.38
2023-01-28T03:47:53.821Z,1023.42
2023-01-28T03:48:53.839Z,1023.42
2023-01-28T03:49:53.805Z,1023.42
2023-01-28T03:50:53.792Z,1023.41
2023-01-28T03:51:53.780Z,1023.45
2023-01-28T03:52:53.765Z,1023.47
2023-01-28T03:53:53.777Z,1023.45
2023-01-28T03:54:53.753Z,1023.43
2023-01-28T03:55:53.772Z,1023.48
2023-01-28T03:56:53.726Z,1023.37
2023-01-28T03:57:53.714Z,1023.40
2023-01-28T03:58:53.737Z,1023.40
2023-01-28T03:59:53.693Z,1023.44
2023-01-28T04:00:53.685Z,1023.36
2023-01-28T04:01:53.692Z,1023.37
2023-01-28T04:02:53.757Z,1023.40
2023-01-28T04:03:53.680Z,1023.34
2023-01-28T04:04:53.646Z,1023.35
2023-01-28T04:05:53.626Z,1023.39
2023-01-28T04:06:53.613Z,1023.37
2023-01-28T04:07:53.608Z,1023.35
2023-01-28T04:08:53.615Z,1023.32
2023-01-28T04:09:53.590Z,1023.43
2023-01-28T04:10:53.608Z,1023.41
2023-01-28T04:11:53.573Z,1023.42
2023-01-28T04:12:53.550Z,1023.43
2023-01-28T04:13:53.557Z,1023.38
2023-01-28T04:14:53.527Z,1023.38
2023-01-28T04:15:53.534Z,1023.39
2023-01-28T04:16:53.533Z,1023.37
2023-01-28T04:17:53.499Z,1023.41
2023-01-28T04:18:53.511Z,1023.44
2023-01-28T04:19:53.479Z,1023.50
2023-01-28T04:20:53.467Z,1023.47
2023-01-28T04:21:53.480Z,1023.42
2023-01-28T04:22:53.449Z,1023.43
2023-01-28T04:23:53.475Z,1023.41
2023-01-28T04:24:53.460Z,1023.40
2023-01-28T04:25:53.417Z,1023.38
2023-01-28T04:26:55.518Z,1023.41
2023-01-28T04:27:53.398Z,1023.39
2023-01-28T04:28:53.379Z,1023.44
2023-01-28T04:29:53.395Z,1023.40
2023-01-28T04:30:53.405Z,1023.44
2023-01-28T04:31:53.358Z,1023.40
2023-01-28T04:32:53.344Z,1023.45
2023-01-28T04:33:53.335Z,1023.52
2023-01-28T04:34:53.335Z,1023.51
2023-01-28T04:35:53.335Z,1023.50
2023-01-28T04:36:53.314Z,1023.46
2023-01-28T04:37:53.315Z,1023.46
2023-01-28T04:38:53.276Z,1023.49
2023-01-28T04:39:53.271Z,1023.46
2023-01-28T04:40:53.255Z,1023.43
2023-01-28T04:41:53.246Z,1023.43
2023-01-28T04:42:53.256Z,1023.42
2023-01-28T04:43:53.221Z,1023.38
2023-01-28T04:44:53.212Z,1023.37
2023-01-28T04:45:53.205Z,1023.42
2023-01-28T04:46:53.255Z,1023.43
2023-01-28T04:47:53.201Z,1023.49
2023-01-28T04:48:53.167Z,1023.43
2023-01-28T04:49:53.157Z,1023.46
2023-01-28T04:50:53.165Z,1023.47
2023-01-28T04:51:53.161Z,1023.41
2023-01-28T04:52:53.132Z,1023.41
2023-01-28T04:53:53.129Z,1023.40
2023-01-28T04:54:53.104Z,1023.36
2023-01-28T04:55:53.092Z,1023.34
2023-01-28T04:56:53.197Z,1023.35
2023-01-28T04:57:53.079Z,1023.31
2023-01-28T04:58:53.056Z,1023.33
2023-01-28T04:59:53.053Z,1023.40
2023-01-28T05:00:53.106Z,1023.36
2023-01-28T05:01:53.103Z,1023.36
2023-01-28T05:02:53.055Z,1023.33
2023-01-28T05:03:53.008Z,1023.29
2023-01-28T05:04:52.996Z,1023.35
2023-01-28T05:05:52.987Z,1023.40
2023-01-28T05:06:52.993Z,1023.44
2023-01-28T05:07:52.998Z,1023.48
2023-01-28T05:08:52.981Z,1023.47
2023-01-28T05:09:52.943Z,1023.48
2023-01-28T05:10:52.934Z,1023.48
2023-01-28T05:11:52.926Z,1023.45
2023-01-28T05:12:52.939Z,1023.48
2023-01-28T05:13:52.905Z,1023.54
2023-01-28T05:14:52.915Z,1023.53
2023-01-28T05:15:52.884Z,1023.54
2023-01-28T05:16:52.872Z,1023.58
2023-01-28T05:17:52.887Z,1023.63
2023-01-28T05:18:52.849Z,1023.60
2023-01-28T05:19:52.838Z,1023.62
2023-01-28T05:20:52.830Z,1023.62
2023-01-28T05:21:52.815Z,1023.72
2023-01-28T05:22:52.854Z,1023.62
2023-01-28T05:23:52.877Z,1023.63
2023-01-28T05:24:52.786Z,1023.68
2023-01-28T05:25:52.780Z,1023.71
2023-01-28T05:26:52.769Z,1023.73
2023-01-28T05:27:52.773Z,1023.66
2023-01-28T05:28:52.751Z,1023.73
2023-01-28T05:29:52.734Z,1023.70
2023-01-28T05:30:52.800Z,1023.73
2023-01-28T05:31:52.719Z,1023.63
2023-01-28T05:32:52.734Z,1023.63
2023-01-28T05:33:52.738Z,1023.62
2023-01-28T05:34:52.731Z,1023.61
2023-01-28T05:35:52.664Z,1023.62
2023-01-28T05:36:52.653Z,1023.67
2023-01-28T05:37:52.669Z,1023.63
2023-01-28T05:38:52.689Z,1023.65
2023-01-28T05:39:52.624Z,1023.68
2023-01-28T05:40:52.612Z,1023.66
2023-01-28T05:41:52.601Z,1023.72
2023-01-28T05:42:52.594Z,1023.65
2023-01-28T05:43:52.603Z,1023.63
2023-01-28T05:44:52.568Z,1023.68
2023-01-28T05:45:52.620Z,1023.65
2023-01-28T05:46:52.554Z,1023.68
2023-01-28T05:47:52.581Z,1023.62
2023-01-28T05:48:52.531Z,1023.66
2023-01-28T05:49:52.507Z,1023.62
2023-01-28T05:50:52.552Z,1023.65
2023-01-28T05:51:52.502Z,1023.72
2023-01-28T05:52:52.514Z,1023.74
2023-01-28T05:53:52.502Z,1023.75
2023-01-28T05:54:52.486Z,1023.62
2023-01-28T05:55:52.450Z,1023.65
2023-01-28T05:56:52.440Z,1023.68
2023-01-28T05:57:52.501Z,1023.62
2023-01-28T05:58:52.460Z,1023.71
2023-01-28T05:59:52.406Z,1023.70
2023-01-28T06:00:52.398Z,1023.68
2023-01-28T06:01:52.379Z,1023.73
2023-01-28T06:02:52.379Z,1023.67
2023-01-28T06:03:52.393Z,1023.59
2023-01-28T06:04:52.376Z,1023.66
2023-01-28T06:05:52.346Z,1023.66
2023-01-28T06:06:52.333Z,1023.64
2023-01-28T06:07:52.326Z,1023.59
2023-01-28T06:08:52.340Z,1023.61
2023-01-28T06:09:52.304Z,1023.65
2023-01-28T06:10:52.317Z,1023.71
2023-01-28T06:11:52.286Z,1023.67
2023-01-28T06:12:52.273Z,1023.70
2023-01-28T06:13:52.296Z,1023.67
2023-01-28T06:14:52.255Z,1023.70
2023-01-28T06:15:52.255Z,1023.66
2023-01-28T06:16:52.309Z,1023.65
2023-01-28T06:17:52.225Z,1023.65
2023-01-28T06:18:52.258Z,1023.70
2023-01-28T06:19:52.195Z,1023.67
2023-01-28T06:20:52.188Z,1023.71
2023-01-28T06:21:52.171Z,1023.70
2023-01-28T06:22:52.166Z,1023.80
2023-01-28T06:23:52.188Z,1023.77
2023-01-28T06:24:52.163Z,1023.79
2023-01-28T06:25:52.157Z,1023.76
2023-01-28T06:26:52.139Z,1023.77
2023-01-28T06:27:52.114Z,1023.76
2023-01-28T06:28:52.100Z,1023.85
2023-01-28T06:29:52.095Z,1023.73
2023-01-28T06:30:52.124Z,1023.81
2023-01-28T06:31:52.082Z,1023.85
2023-01-28T06:32:52.059Z,1023.85
2023-01-28T06:33:52.049Z,1023.86
2023-01-28T06:34:52.063Z,1023.86
2023-01-28T06:35:52.054Z,1023.81
2023-01-28T06:36:52.018Z,1023.85
2023-01-28T06:37:52.004Z,1023.82
2023-01-28T06:38:51.992Z,1023.87
2023-01-28T06:39:51.997Z,1023.87
2023-01-28T06:40:51.992Z,1023.89
2023-01-28T06:41:52.024Z,1023.89
2023-01-28T06:42:51.993Z,1023.89
2023-01-28T06:43:51.955Z,1023.88
2023-01-28T06:44:51.937Z,1023.83
2023-01-28T06:45:51.916Z,1023.89
2023-01-28T06:46:51.942Z,1023.85
2023-01-28T06:47:51.915Z,1023.76
2023-01-28T06:48:51.887Z,1023.90
2023-01-28T06:49:51.873Z,1023.88
2023-01-28T06:50:51.887Z,1023.90
2023-01-28T06:51:51.876Z,1023.90
2023-01-28T06:52:51.844Z,1023.88
2023-01-28T06:53:51.832Z,1023.94
2023-01-28T06:54:51.834Z,1023.94
2023-01-28T06:55:51.807Z,1023.90
2023-01-28T06:56:51.817Z,1023.89
2023-01-28T06:57:51.787Z,1023.93
2023-01-28T06:58:51.800Z,1023.92
2023-01-28T06:59:51.791Z,1023.91
2023-01-28T07:00:51.764Z,1023.86
2023-01-28T07:01:51.843Z,1023.90
2023-01-28T07:02:51.775Z,1023.92
2023-01-28T07:03:51.723Z,1023.94
2023-01-28T07:04:51.755Z,1023.95
2023-01-28T07:05:51.697Z,1024.01
2023-01-28T07:06:51.699Z,1024.01
2023-01-28T07:07:51.704Z,1023.96
2023-01-28T07:08:51.672Z,1023.94
2023-01-28T07:09:51.656Z,1023.97
2023-01-28T07:10:51.673Z,1024.01
2023-01-28T07:11:51.638Z,1023.98
2023-01-28T07:12:51.631Z,1023.97
2023-01-28T07:13:51.614Z,1023.94
2023-01-28T07:14:51.634Z,1023.97
2023-01-28T07:15:51.617Z,1024.03
2023-01-28T07:16:51.666Z,1024.02
2023-01-28T07:17:51.583Z,1024.06
2023-01-28T07:18:51.573Z,1024.02
2023-01-28T07:19:51.559Z,1024.03
2023-01-28T07:20:51.572Z,1024.03
2023-01-28T07:21:51.536Z,1023.98
2023-01-28T07:22:51.524Z,1024.06
2023-01-28T07:23:51.516Z,1023.96
2023-01-28T07:24:51.509Z,1024.00
2023-01-28T07:25:51.519Z,1024.00
2023-01-28T07:26:51.484Z,1024.02
2023-01-28T07:27:51.496Z,1024.05
2023-01-28T07:28:51.468Z,1023.97
2023-01-28T07:29:51.444Z,1023.93
2023-01-28T07:30:53.601Z,1023.95
2023-01-28T07:31:51.480Z,1024.00
2023-01-28T07:32:51.446Z,1023.98
2023-01-28T07:33:51.398Z,1024.00
2023-01-28T07:34:51.393Z,1024.02
2023-01-28T07:35:51.409Z,1024.06
2023-01-28T07:36:51.374Z,1023.95
2023-01-28T07:37:51.359Z,1023.98
2023-01-28T07:38:51.385Z,1023.87
2023-01-28T07:39:51.341Z,1023.98
2023-01-28T07:40:51.330Z,1023.98
2023-01-28T07:41:51.315Z,1023.92
2023-01-28T07:42:51.310Z,1023.94
2023-01-28T07:43:51.313Z,1023.97
2023-01-28T07:44:51.283Z,1023.99
2023-01-28T07:45:51.289Z,1023.93
2023-01-28T07:46:51.334Z,1024.04
2023-01-28T07:47:51.250Z,1024.06
2023-01-28T07:48:51.269Z,1024.05
2023-01-28T07:49:51.227Z,1024.01
2023-01-28T07:50:51.232Z,1024.02
2023-01-28T07:51:51.210Z,1024.02
2023-01-28T07:52:51.211Z,1024.08
2023-01-28T07:53:51.211Z,1024.04
2023-01-28T07:54:51.177Z,1023.96
2023-01-28T07:55:51.197Z,1023.99
2023-01-28T07:56:51.182Z,1024.03
2023-01-28T07:57:51.167Z,1023.94
2023-01-28T07:58:51.166Z,1023.95
2023-01-28T07:59:51.176Z,1023.96
2023-01-28T08:00:51.139Z,1023.95
2023-01-28T08:01:52.543Z,1023.95
2023-01-28T08:02:51.136Z,1023.97
2023-01-28T08:03:51.098Z,1024.05
2023-01-28T08:04:51.299Z,1024.01
2023-01-28T08:05:51.115Z,1024.04
2023-01-28T08:06:51.059Z,1024.06
2023-01-28T08:07:51.037Z,1024.06
2023-01-28T08:08:51.033Z,1023.99
2023-01-28T08:09:51.019Z,1024.09
2023-01-28T08:10:51.037Z,1024.14
2023-01-28T08:11:50.995Z,1024.11
2023-01-28T08:12:50.997Z,1024.17
2023-01-28T08:13:50.986Z,1024.18
2023-01-28T08:14:50.991Z,1024.21
2023-01-28T08:15:51.015Z,1024.18
2023-01-28T08:16:50.947Z,1024.22
2023-01-28T08:17:50.931Z,1024.16
2023-01-28T08:18:50.958Z,1024.29
2023-01-28T08:19:50.907Z,1024.25
2023-01-28T08:20:50.939Z,1024.21
2023-01-28T08:21:50.892Z,1024.21
2023-01-28T08:22:50.885Z,1024.21
2023-01-28T08:23:50.878Z,1024.26
2023-01-28T08:24:50.864Z,1024.26
2023-01-28T08:25:50.874Z,1024.26
2023-01-28T08:26:50.833Z,1024.30
2023-01-28T08:27:50.840Z,1024.33
2023-01-28T08:28:51.724Z,1024.32
2023-01-28T08:29:50.821Z,1024.30
2023-01-28T08:30:50.938Z,1024.32
2023-01-28T08:31:50.842Z,1024.33
2023-01-28T08:32:50.775Z,1024.36
2023-01-28T08:33:50.771Z,1024.37
2023-01-28T08:34:50.774Z,1024.41
2023-01-28T08:35:50.764Z,1024.41
2023-01-28T08:36:50.755Z,1024.50
2023-01-28T08:37:50.716Z,1024.46
2023-01-28T08:38:50.711Z,1024.44
2023-01-28T08:39:50.699Z,1024.46
2023-01-28T08:40:50.704Z,1024.40
2023-01-28T08:41:50.706Z,1024.43
2023-01-28T08:42:50.675Z,1024.39
2023-01-28T08:43:50.662Z,1024.44
2023-01-28T08:44:50.645Z,1024.41
2023-01-28T08:45:50.656Z,1024.48
2023-01-28T08:46:50.627Z,1024.53
2023-01-28T08:47:50.613Z,1024.43
2023-01-28T08:48:50.609Z,1024.40
2023-01-28T08:49:50.595Z,1024.35
2023-01-28T08:50:50.640Z,1024.32
2023-01-28T08:51:50.574Z,1024.42
2023-01-28T08:52:51.177Z,1024.42
2023-01-28T08:53:50.548Z,1024.46
2023-01-28T08:54:50.543Z,1024.42
2023-01-28T08:55:50.560Z,1024.46
2023-01-28T08:56:50.516Z,1024.45
2023-01-28T08:57:50.501Z,1024.52
2023-01-28T08:58:50.496Z,1024.53
2023-01-28T08:59:50.513Z,1024.46
2023-01-28T09:00:50.481Z,1024.53
2023-01-28T09:01:50.488Z,1024.48
2023-01-28T09:02:50.455Z,1024.49
2023-01-28T09:03:50.487Z,1024.55
2023-01-28T09:04:50.458Z,1024.59
2023-01-28T09:05:50.441Z,1024.57
2023-01-28T09:06:50.434Z,1024.58
2023-01-28T09:07:50.392Z,1024.60
2023-01-28T09:08:50.391Z,1024.61
2023-01-28T09:09:50.392Z,1024.56
2023-01-28T09:10:50.372Z,1024.59
2023-01-28T09:11:50.352Z,1024.61
2023-01-28T09:12:50.367Z,1024.62
2023-01-28T09:13:50.332Z,1024.61
2023-01-28T09:14:50.361Z,1024.57
2023-01-28T09:15:50.341Z,1024.60
2023-01-28T09:16:50.342Z,1024.65
2023-01-28T09:17:50.288Z,1024.65
2023-01-28T09:18:50.296Z,1024.74
2023-01-28T09:19:50.269Z,1024.71
2023-01-28T09:20:50.263Z,1024.73
2023-01-28T09:21:50.242Z,1024.74
2023-01-28T09:22:50.308Z,1024.73
2023-01-28T09:23:50.227Z,1024.71
2023-01-28T09:24:50.231Z,1024.74
2023-01-28T09:25:50.240Z,1024.73
2023-01-28T09:26:50.195Z,1024.79
2023-01-28T09:27:50.207Z,1024.77
2023-01-28T09:28:50.186Z,1024.80
2023-01-28T09:29:50.164Z,1024.67
2023-01-28T09:30:50.206Z,1024.72
2023-01-28T09:31:50.191Z,1024.76
2023-01-28T09:32:50.175Z,1024.75
2023-01-28T09:33:50.120Z,1024.78
2023-01-28T09:34:50.111Z,1024.83
2023-01-28T09:35:50.101Z,1024.87
2023-01-28T09:36:50.116Z,1024.86
2023-01-28T09:37:50.115Z,1024.82
2023-01-28T09:38:50.083Z,1024.80
2023-01-28T09:39:50.054Z,1024.82
2023-01-28T09:40:50.063Z,1024.81
2023-01-28T09:41:50.034Z,1024.89
2023-01-28T09:42:50.043Z,1024.82
2023-01-28T09:43:50.016Z,1024.89
2023-01-28T09:44:50.000Z,1024.88
2023-01-28T09:45:49.993Z,1024.87
2023-01-28T09:46:50.044Z,1024.90
2023-01-28T09:47:49.994Z,1024.89
2023-01-28T09:48:49.961Z,1024.88
2023-01-28T09:49:49.954Z,1024.89
2023-01-28T09:50:49.939Z,1024.87
2023-01-28T09:51:49.935Z,1024.86
2023-01-28T09:52:49.938Z,1024.84
2023-01-28T09:53:50.144Z,1024.87
2023-01-28T09:54:49.938Z,1025.01
2023-01-28T09:55:49.927Z,1024.98
2023-01-28T09:56:49.876Z,1025.04
2023-01-28T09:57:49.864Z,1024.94
2023-01-28T09:58:49.858Z,1024.96
2023-01-28T09:59:49.876Z,1024.95
2023-01-28T10:00:49.881Z,1024.95
2023-01-28T10:01:49.823Z,1024.96
2023-01-28T10:02:49.849Z,1024.91
2023-01-28T10:03:49.833Z,1024.87
2023-01-28T10:04:49.791Z,1024.89
2023-01-28T10:05:49.779Z,1024.84
2023-01-28T10:06:49.769Z,1024.88
2023-01-28T10:07:49.758Z,1024.83
2023-01-28T10:08:49.765Z,1024.86
2023-01-28T10:09:49.777Z,1024.87
2023-01-28T10:10:49.739Z,1024.82
2023-01-28T10:11:49.718Z,1024.85
2023-01-28T10:12:49.704Z,1024.80
2023-01-28T10:13:49.706Z,1024.82
2023-01-28T10:14:49.715Z,1024.76
2023-01-28T10:15:49.671Z,1024.74
2023-01-28T10:16:49.665Z,1024.73
2023-01-28T10:17:49.664Z,1024.77
2023-01-28T10:18:49.638Z,1024.76
2023-01-28T10:19:49.657Z,1024.80
2023-01-28T10:20:49.616Z,1024.87
2023-01-28T10:21:49.612Z,1024.83
2023-01-28T10:22:49.592Z,1024.80
2023-01-28T10:23:49.597Z,1024.80
2023-01-28T10:24:49.641Z,1024.78
2023-01-28T10:25:49.570Z,1024.77
2023-01-28T10:26:49.569Z,1024.75
2023-01-28T10:27:49.555Z,1024.69
2023-01-28T10:28:49.557Z,1024.70
2023-01-28T10:29:49.523Z,1024.74
2023-01-28T10:30:49.578Z,1024.81
2023-01-28T10:31:49.580Z,1024.75
2023-01-28T10:32:49.494Z,1024.71
2023-01-28T10:33:49.478Z,1024.67
2023-01-28T10:34:49.472Z,1024.70
2023-01-28T10:35:49.483Z,1024.61
2023-01-28T10:36:49.541Z,1024.64
2023-01-28T10:37:49.437Z,1024.68
2023-01-28T10:38:49.423Z,1024.67
2023-01-28T10:39:49.413Z,1024.68
2023-01-28T10:40:49.440Z,1024.70
2023-01-28T10:41:57.952Z,1024.71
2023-01-28T10:42:50.418Z,1024.66
2023-01-28T10:43:49.381Z,1024.63
2023-01-28T10:44:49.360Z,1024.68
2023-01-28T10:45:49.411Z,1024.73
2023-01-28T10:46:49.373Z,1024.72
2023-01-28T10:47:49.327Z,1024.70
2023-01-28T10:48:49.315Z,1024.68
2023-01-28T10:49:49.311Z,1024.70
2023-01-28T10:50:49.321Z,1024.72
2023-01-28T10:51:49.315Z,1024.67
2023-01-28T10:52:49.278Z,1024.65
2023-01-28T10:53:49.286Z,1024.69
2023-01-28T10:54:49.259Z,1024.64
2023-01-28T10:55:49.252Z,1024.64
2023-01-28T10:56:49.272Z,1024.64
2023-01-28T10:57:49.223Z,1024.63
2023-01-28T10:58:49.231Z,1024.59
2023-01-28T10:59:49.208Z,1024.62
2023-01-28T11:00:49.223Z,1024.66
2023-01-28T11:01:49.226Z,1024.65
2023-01-28T11:02:49.168Z,1024.69
2023-01-28T11:03:49.173Z,1024.63
2023-01-28T11:04:49.149Z,1024.68
2023-01-28T11:05:49.141Z,1024.69
2023-01-28T11:06:49.156Z,1024.61
2023-01-28T11:07:49.144Z,1024.69
2023-01-28T11:08:49.107Z,1024.64
2023-01-28T11:09:49.098Z,1024.70
2023-01-28T11:10:49.083Z,1024.65
2023-01-28T11:11:49.112Z,1024.60
2023-01-28T11:12:49.061Z,1024.62
2023-01-28T11:13:49.051Z,1024.61
2023-01-28T11:14:49.063Z,1024.68
2023-01-28T11:15:49.061Z,1024.61
2023-01-28T11:16:49.061Z,1024.63
2023-01-28T11:17:49.118Z,1024.63
2023-01-28T11:18:48.999Z,1024.61
2023-01-28T11:19:48.993Z,1024.69
2023-01-28T11:20:49.011Z,1024.60
2023-01-28T11:21:48.994Z,1024.55
2023-01-28T11:22:48.960Z,1024.60
2023-01-28T11:23:48.947Z,1024.55
2023-01-28T11:24:48.931Z,1024.59
2023-01-28T11:25:48.950Z,1024.59
2023-01-28T11:26:48.940Z,1024.53
2023-01-28T11:27:48.904Z,1024.53
2023-01-28T11:28:48.941Z,1024.53
2023-01-28T11:29:48.909Z,1024.55
2023-01-28T11:30:48.958Z,1024.49
2023-01-28T11:31:48.892Z,1024.54
2023-01-28T11:32:48.854Z,1024.45
2023-01-28T11:33:48.843Z,1024.53
2023-01-28T11:34:48.825Z,1024.48
2023-01-28T11:35:48.839Z,1024.47
2023-01-28T11:36:48.827Z,1024.54
2023-01-28T11:37:48.792Z,1024.58
2023-01-28T11:38:48.776Z,1024.45
2023-01-28T11:39:48.779Z,1024.48
2023-01-28T11:40:48.829Z,1024.42
2023-01-28T11:41:48.779Z,1024.40
2023-01-28T11:42:48.736Z,1024.44
2023-01-28T11:43:48.725Z,1024.34
2023-01-28T11:44:48.762Z,1024.33
2023-01-28T11:45:48.800Z,1024.31
2023-01-28T11:46:48.739Z,1024.32
2023-01-28T11:47:48.693Z,1024.30
2023-01-28T11:48:48.673Z,1024.28
2023-01-28T11:49:48.668Z,1024.31
2023-01-28T11:50:48.647Z,1024.33
2023-01-28T11:51:48.675Z,1024.38
2023-01-28T11:53:05.600Z,1024.28
2023-01-28T11:53:49.620Z,1024.26
2023-01-28T11:54:48.610Z,1024.28
2023-01-28T11:55:48.609Z,1024.27
2023-01-28T11:56:48.612Z,1024.21
2023-01-28T11:57:48.576Z,1024.22
2023-01-28T11:58:48.596Z,1024.25
2023-01-28T11:59:48.586Z,1024.29
2023-01-28T12:00:48.539Z,1024.28
2023-01-28T12:01:48.540Z,1024.27
2023-01-28T12:02:48.608Z,1024.26
2023-01-28T12:03:48.522Z,1024.32
2023-01-28T12:04:48.560Z,1024.35
2023-01-28T12:05:48.489Z,1024.26